sensor_id;sensor_type;location;lat;lon;timestamp;P1;durP1;ratioP1;P2;durP2;ratioP2
40072;SDS011;25774;52.256;9.356;2022-10-15T00:01:45;19.43;;;12.27;;
40072;SDS011;25774;52.256;9.356;2022-10-15T00:04:11;36.40;;;15.20;;
40072;SDS011;25774;52.256;9.356;2022-10-15T00:06:36;19.90;;;12.50;;
40072;SDS011;25774;52.256;9.356;2022-10-15T00:09:01;20.97;;;12.93;;
40072;SDS011;25774;52.256;9.356;2022-10-15T00:11:27;26.83;;;15.15;;
40072;SDS011;25774;52.256;9.356;2022-10-15T00:13:54;22.00;;;13.20;;
40072;SDS011;25774;52.256;9.356;2022-10-15T00:16:21;22.42;;;14.38;;
40072;SDS011;25774;52.256;9.356;2022-10-15T00:18:48;21.35;;;13.75;;
40072;SDS011;25774;52.256;9.356;2022-10-15T00:21:16;24.45;;;14.38;;
40072;SDS011;25774;52.256;9.356;2022-10-15T00:23:44;26.80;;;14.32;;
40072;SDS011;25774;52.256;9.356;2022-10-15T00:26:14;32.42;;;14.60;;
40072;SDS011;25774;52.256;9.356;2022-10-15T00:28:42;26.50;;;15.27;;
40072;SDS011;25774;52.256;9.356;2022-10-15T00:31:09;24.85;;;13.90;;
40072;SDS011;25774;52.256;9.356;2022-10-15T00:33:41;23.13;;;13.90;;
40072;SDS011;25774;52.256;9.356;2022-10-15T00:36:12;29.30;;;15.10;;
40072;SDS011;25774;52.256;9.356;2022-10-15T00:38:39;28.13;;;15.93;;
40072;SDS011;25774;52.256;9.356;2022-10-15T00:41:05;30.77;;;15.63;;
40072;SDS011;25774;52.256;9.356;2022-10-15T00:43:50;26.50;;;13.95;;
40072;SDS011;25774;52.256;9.356;2022-10-15T00:48:57;29.30;;;14.63;;
40072;SDS011;25774;52.256;9.356;2022-10-15T00:51:29;26.98;;;13.25;;
40072;SDS011;25774;52.256;9.356;2022-10-15T00:53:57;26.67;;;15.73;;
40072;SDS011;25774;52.256;9.356;2022-10-15T00:56:24;26.83;;;14.73;;
40072;SDS011;25774;52.256;9.356;2022-10-15T00:58:51;26.33;;;15.57;;
40072;SDS011;25774;52.256;9.356;2022-10-15T01:01:19;25.52;;;15.65;;
40072;SDS011;25774;52.256;9.356;2022-10-15T01:03:45;25.10;;;14.07;;
40072;SDS011;25774;52.256;9.356;2022-10-15T01:06:10;29.87;;;17.07;;
40072;SDS011;25774;52.256;9.356;2022-10-15T01:08:36;27.67;;;14.70;;
40072;SDS011;25774;52.256;9.356;2022-10-15T01:11:26;30.83;;;15.07;;
40072;SDS011;25774;52.256;9.356;2022-10-15T01:22:56;29.92;;;14.85;;
40072;SDS011;25774;52.256;9.356;2022-10-15T01:28:23;26.35;;;15.23;;
40072;SDS011;25774;52.256;9.356;2022-10-15T01:30:59;29.63;;;14.05;;
40072;SDS011;25774;52.256;9.356;2022-10-15T01:36:36;40.85;;;15.05;;
40072;SDS011;25774;52.256;9.356;2022-10-15T01:39:11;23.95;;;13.32;;
40072;SDS011;25774;52.256;9.356;2022-10-15T01:41:39;23.38;;;13.60;;
40072;SDS011;25774;52.256;9.356;2022-10-15T01:44:21;35.10;;;15.52;;
40072;SDS011;25774;52.256;9.356;2022-10-15T01:47:10;28.77;;;14.75;;
40072;SDS011;25774;52.256;9.356;2022-10-15T01:49:41;26.52;;;15.75;;
40072;SDS011;25774;52.256;9.356;2022-10-15T01:52:13;27.40;;;15.15;;
40072;SDS011;25774;52.256;9.356;2022-10-15T01:54:45;36.72;;;16.17;;
40072;SDS011;25774;52.256;9.356;2022-10-15T01:57:13;28.58;;;13.27;;
40072;SDS011;25774;52.256;9.356;2022-10-15T01:59:41;30.75;;;12.63;;
40072;SDS011;25774;52.256;9.356;2022-10-15T02:04:34;22.43;;;12.87;;
40072;SDS011;25774;52.256;9.356;2022-10-15T02:17:59;26.65;;;13.00;;
40072;SDS011;25774;52.256;9.356;2022-10-15T02:20:35;26.23;;;11.98;;
40072;SDS011;25774;52.256;9.356;2022-10-15T02:23:12;26.33;;;13.38;;
40072;SDS011;25774;52.256;9.356;2022-10-15T02:25:45;25.25;;;13.63;;
40072;SDS011;25774;52.256;9.356;2022-10-15T02:28:12;24.02;;;13.00;;
40072;SDS011;25774;52.256;9.356;2022-10-15T02:30:40;28.27;;;12.65;;
40072;SDS011;25774;52.256;9.356;2022-10-15T02:33:11;42.15;;;14.55;;
40072;SDS011;25774;52.256;9.356;2022-10-15T02:35:39;32.75;;;13.48;;
40072;SDS011;25774;52.256;9.356;2022-10-15T02:38:07;26.75;;;14.15;;
40072;SDS011;25774;52.256;9.356;2022-10-15T02:40:36;38.00;;;13.85;;
40072;SDS011;25774;52.256;9.356;2022-10-15T02:43:04;25.73;;;14.57;;
40072;SDS011;25774;52.256;9.356;2022-10-15T02:45:33;27.02;;;13.35;;
40072;SDS011;25774;52.256;9.356;2022-10-15T02:47:58;21.93;;;12.47;;
40072;SDS011;25774;52.256;9.356;2022-10-15T02:50:23;23.40;;;13.73;;
40072;SDS011;25774;52.256;9.356;2022-10-15T02:52:50;27.20;;;12.73;;
40072;SDS011;25774;52.256;9.356;2022-10-15T02:57:41;28.25;;;13.30;;
40072;SDS011;25774;52.256;9.356;2022-10-15T03:00:06;27.70;;;13.00;;
40072;SDS011;25774;52.256;9.356;2022-10-15T03:02:32;24.73;;;13.60;;
40072;SDS011;25774;52.256;9.356;2022-10-15T03:04:58;28.37;;;13.27;;
40072;SDS011;25774;52.256;9.356;2022-10-15T03:07:23;25.10;;;12.87;;
40072;SDS011;25774;52.256;9.356;2022-10-15T03:09:48;22.67;;;12.40;;
40072;SDS011;25774;52.256;9.356;2022-10-15T03:12:14;26.07;;;12.43;;
40072;SDS011;25774;52.256;9.356;2022-10-15T03:14:39;25.97;;;14.20;;
40072;SDS011;25774;52.256;9.356;2022-10-15T03:17:04;25.77;;;13.10;;
40072;SDS011;25774;52.256;9.356;2022-10-15T03:19:30;26.00;;;13.67;;
40072;SDS011;25774;52.256;9.356;2022-10-15T03:21:55;26.30;;;13.80;;
40072;SDS011;25774;52.256;9.356;2022-10-15T03:24:20;27.03;;;13.00;;
40072;SDS011;25774;52.256;9.356;2022-10-15T03:26:45;29.10;;;13.60;;
40072;SDS011;25774;52.256;9.356;2022-10-15T03:29:11;21.93;;;11.50;;
40072;SDS011;25774;52.256;9.356;2022-10-15T03:31:36;27.77;;;13.83;;
40072;SDS011;25774;52.256;9.356;2022-10-15T03:34:01;24.20;;;12.07;;
40072;SDS011;25774;52.256;9.356;2022-10-15T03:36:27;32.53;;;12.77;;
40072;SDS011;25774;52.256;9.356;2022-10-15T03:38:52;30.27;;;14.33;;
40072;SDS011;25774;52.256;9.356;2022-10-15T03:41:18;29.73;;;14.83;;
40072;SDS011;25774;52.256;9.356;2022-10-15T03:43:43;54.27;;;17.57;;
40072;SDS011;25774;52.256;9.356;2022-10-15T03:46:08;38.00;;;13.40;;
40072;SDS011;25774;52.256;9.356;2022-10-15T03:48:34;27.58;;;13.00;;
40072;SDS011;25774;52.256;9.356;2022-10-15T03:50:59;40.17;;;13.43;;
40072;SDS011;25774;52.256;9.356;2022-10-15T03:53:25;23.70;;;12.43;;
40072;SDS011;25774;52.256;9.356;2022-10-15T03:55:50;30.80;;;11.77;;
40072;SDS011;25774;52.256;9.356;2022-10-15T03:58:16;27.47;;;12.73;;
40072;SDS011;25774;52.256;9.356;2022-10-15T04:00:42;29.13;;;13.33;;
40072;SDS011;25774;52.256;9.356;2022-10-15T04:03:08;32.05;;;11.70;;
40072;SDS011;25774;52.256;9.356;2022-10-15T04:05:35;37.70;;;13.73;;
40072;SDS011;25774;52.256;9.356;2022-10-15T04:08:01;27.75;;;13.27;;
40072;SDS011;25774;52.256;9.356;2022-10-15T04:10:28;31.50;;;11.77;;
40072;SDS011;25774;52.256;9.356;2022-10-15T04:12:54;34.50;;;12.55;;
40072;SDS011;25774;52.256;9.356;2022-10-15T04:15:19;34.40;;;12.20;;
40072;SDS011;25774;52.256;9.356;2022-10-15T04:17:45;30.63;;;12.97;;
40072;SDS011;25774;52.256;9.356;2022-10-15T04:20:11;33.30;;;13.37;;
40072;SDS011;25774;52.256;9.356;2022-10-15T04:25:02;31.55;;;13.38;;
40072;SDS011;25774;52.256;9.356;2022-10-15T04:27:28;31.90;;;14.55;;
40072;SDS011;25774;52.256;9.356;2022-10-15T04:29:53;33.73;;;14.67;;
40072;SDS011;25774;52.256;9.356;2022-10-15T04:32:19;34.57;;;14.07;;
40072;SDS011;25774;52.256;9.356;2022-10-15T04:34:45;32.27;;;14.53;;
40072;SDS011;25774;52.256;9.356;2022-10-15T04:37:12;26.30;;;12.32;;
40072;SDS011;25774;52.256;9.356;2022-10-15T04:39:37;27.92;;;13.48;;
40072;SDS011;25774;52.256;9.356;2022-10-15T04:42:03;32.03;;;13.53;;
40072;SDS011;25774;52.256;9.356;2022-10-15T04:44:28;38.17;;;14.33;;
40072;SDS011;25774;52.256;9.356;2022-10-15T04:46:54;33.77;;;14.57;;
40072;SDS011;25774;52.256;9.356;2022-10-15T04:49:19;31.90;;;13.17;;
40072;SDS011;25774;52.256;9.356;2022-10-15T04:51:45;27.73;;;13.70;;
40072;SDS011;25774;52.256;9.356;2022-10-15T04:54:10;32.37;;;15.17;;
40072;SDS011;25774;52.256;9.356;2022-10-15T04:56:35;36.87;;;15.20;;
40072;SDS011;25774;52.256;9.356;2022-10-15T04:59:01;37.40;;;16.30;;
40072;SDS011;25774;52.256;9.356;2022-10-15T05:01:30;32.83;;;15.02;;
40072;SDS011;25774;52.256;9.356;2022-10-15T05:03:55;33.93;;;14.83;;
40072;SDS011;25774;52.256;9.356;2022-10-15T05:06:21;30.13;;;15.27;;
40072;SDS011;25774;52.256;9.356;2022-10-15T05:08:47;29.83;;;14.55;;
40072;SDS011;25774;52.256;9.356;2022-10-15T05:11:17;33.85;;;13.13;;
40072;SDS011;25774;52.256;9.356;2022-10-15T05:13:45;30.85;;;14.00;;
40072;SDS011;25774;52.256;9.356;2022-10-15T05:16:11;29.58;;;12.88;;
40072;SDS011;25774;52.256;9.356;2022-10-15T05:18:41;30.75;;;14.35;;
40072;SDS011;25774;52.256;9.356;2022-10-15T05:21:08;38.28;;;14.90;;
40072;SDS011;25774;52.256;9.356;2022-10-15T05:23:34;31.63;;;14.00;;
40072;SDS011;25774;52.256;9.356;2022-10-15T05:26:01;36.65;;;15.68;;
40072;SDS011;25774;52.256;9.356;2022-10-15T05:28:35;43.20;;;19.13;;
40072;SDS011;25774;52.256;9.356;2022-10-15T05:31:04;42.83;;;18.43;;
40072;SDS011;25774;52.256;9.356;2022-10-15T05:33:34;42.20;;;17.90;;
40072;SDS011;25774;52.256;9.356;2022-10-15T05:38:55;45.58;;;18.55;;
40072;SDS011;25774;52.256;9.356;2022-10-15T05:41:23;55.00;;;20.80;;
40072;SDS011;25774;52.256;9.356;2022-10-15T05:43:50;53.70;;;23.98;;
40072;SDS011;25774;52.256;9.356;2022-10-15T05:46:16;41.38;;;18.80;;
40072;SDS011;25774;52.256;9.356;2022-10-15T05:48:42;35.65;;;16.60;;
40072;SDS011;25774;52.256;9.356;2022-10-15T05:51:11;38.33;;;17.07;;
40072;SDS011;25774;52.256;9.356;2022-10-15T05:53:37;38.78;;;16.67;;
40072;SDS011;25774;52.256;9.356;2022-10-15T05:56:03;36.13;;;16.02;;
40072;SDS011;25774;52.256;9.356;2022-10-15T05:58:29;41.67;;;15.43;;
40072;SDS011;25774;52.256;9.356;2022-10-15T06:00:57;35.55;;;16.45;;
40072;SDS011;25774;52.256;9.356;2022-10-15T06:03:23;38.85;;;15.45;;
40072;SDS011;25774;52.256;9.356;2022-10-15T06:05:49;35.10;;;16.02;;
40072;SDS011;25774;52.256;9.356;2022-10-15T06:08:14;37.05;;;15.73;;
40072;SDS011;25774;52.256;9.356;2022-10-15T06:10:40;36.40;;;15.15;;
40072;SDS011;25774;52.256;9.356;2022-10-15T06:13:06;36.60;;;14.65;;
40072;SDS011;25774;52.256;9.356;2022-10-15T06:15:32;37.37;;;14.43;;
40072;SDS011;25774;52.256;9.356;2022-10-15T06:17:58;38.22;;;17.27;;
40072;SDS011;25774;52.256;9.356;2022-10-15T06:20:25;42.38;;;18.20;;
40072;SDS011;25774;52.256;9.356;2022-10-15T06:22:55;45.88;;;19.38;;
40072;SDS011;25774;52.256;9.356;2022-10-15T06:25:21;42.25;;;18.10;;
40072;SDS011;25774;52.256;9.356;2022-10-15T06:27:46;39.90;;;17.23;;
40072;SDS011;25774;52.256;9.356;2022-10-15T06:30:12;42.13;;;17.70;;
40072;SDS011;25774;52.256;9.356;2022-10-15T06:32:37;47.10;;;16.57;;
40072;SDS011;25774;52.256;9.356;2022-10-15T06:35:02;43.80;;;15.47;;
40072;SDS011;25774;52.256;9.356;2022-10-15T06:37:28;41.95;;;15.23;;
40072;SDS011;25774;52.256;9.356;2022-10-15T06:39:54;43.37;;;18.00;;
40072;SDS011;25774;52.256;9.356;2022-10-15T06:42:19;44.57;;;18.90;;
40072;SDS011;25774;52.256;9.356;2022-10-15T06:44:44;44.17;;;17.57;;
40072;SDS011;25774;52.256;9.356;2022-10-15T06:47:10;40.10;;;17.80;;
40072;SDS011;25774;52.256;9.356;2022-10-15T06:49:35;47.13;;;20.57;;
40072;SDS011;25774;52.256;9.356;2022-10-15T06:52:00;41.20;;;16.93;;
40072;SDS011;25774;52.256;9.356;2022-10-15T06:54:25;45.10;;;17.87;;
40072;SDS011;25774;52.256;9.356;2022-10-15T06:56:51;55.93;;;19.60;;
40072;SDS011;25774;52.256;9.356;2022-10-15T06:59:16;53.13;;;20.73;;
40072;SDS011;25774;52.256;9.356;2022-10-15T07:01:41;47.10;;;19.73;;
40072;SDS011;25774;52.256;9.356;2022-10-15T07:04:07;47.60;;;20.03;;
40072;SDS011;25774;52.256;9.356;2022-10-15T07:06:35;49.87;;;20.07;;
40072;SDS011;25774;52.256;9.356;2022-10-15T07:09:01;44.45;;;18.88;;
40072;SDS011;25774;52.256;9.356;2022-10-15T07:11:27;42.70;;;18.63;;
40072;SDS011;25774;52.256;9.356;2022-10-15T07:13:53;44.57;;;18.53;;
40072;SDS011;25774;52.256;9.356;2022-10-15T07:16:18;51.60;;;20.65;;
40072;SDS011;25774;52.256;9.356;2022-10-15T07:18:46;46.70;;;18.37;;
40072;SDS011;25774;52.256;9.356;2022-10-15T07:21:12;42.75;;;17.55;;
40072;SDS011;25774;52.256;9.356;2022-10-15T07:23:37;51.20;;;19.47;;
40072;SDS011;25774;52.256;9.356;2022-10-15T07:26:02;53.40;;;20.10;;
40072;SDS011;25774;52.256;9.356;2022-10-15T07:28:28;49.63;;;18.80;;
40072;SDS011;25774;52.256;9.356;2022-10-15T07:30:53;45.67;;;19.63;;
40072;SDS011;25774;52.256;9.356;2022-10-15T07:33:19;58.38;;;22.38;;
40072;SDS011;25774;52.256;9.356;2022-10-15T07:35:45;57.10;;;21.30;;
40072;SDS011;25774;52.256;9.356;2022-10-15T07:40:36;51.00;;;19.65;;
40072;SDS011;25774;52.256;9.356;2022-10-15T07:43:01;55.47;;;20.73;;
40072;SDS011;25774;52.256;9.356;2022-10-15T07:45:27;61.03;;;22.20;;
40072;SDS011;25774;52.256;9.356;2022-10-15T07:47:53;59.83;;;23.00;;
40072;SDS011;25774;52.256;9.356;2022-10-15T07:50:19;58.75;;;21.65;;
40072;SDS011;25774;52.256;9.356;2022-10-15T07:52:45;56.35;;;20.40;;
40072;SDS011;25774;52.256;9.356;2022-10-15T07:55:10;53.60;;;20.05;;
40072;SDS011;25774;52.256;9.356;2022-10-15T07:57:36;52.25;;;19.75;;
40072;SDS011;25774;52.256;9.356;2022-10-15T08:00:02;63.37;;;21.00;;
40072;SDS011;25774;52.256;9.356;2022-10-15T08:02:29;55.92;;;20.00;;
40072;SDS011;25774;52.256;9.356;2022-10-15T08:04:54;53.20;;;20.13;;
40072;SDS011;25774;52.256;9.356;2022-10-15T08:07:20;47.77;;;19.63;;
40072;SDS011;25774;52.256;9.356;2022-10-15T08:09:45;55.73;;;18.97;;
40072;SDS011;25774;52.256;9.356;2022-10-15T08:12:11;54.23;;;19.80;;
40072;SDS011;25774;52.256;9.356;2022-10-15T08:14:37;61.72;;;19.45;;
40072;SDS011;25774;52.256;9.356;2022-10-15T08:17:03;47.75;;;19.85;;
40072;SDS011;25774;52.256;9.356;2022-10-15T08:19:29;53.70;;;20.90;;
40072;SDS011;25774;52.256;9.356;2022-10-15T08:21:55;51.47;;;20.50;;
40072;SDS011;25774;52.256;9.356;2022-10-15T08:24:21;52.28;;;20.60;;
40072;SDS011;25774;52.256;9.356;2022-10-15T08:26:46;53.50;;;20.30;;
40072;SDS011;25774;52.256;9.356;2022-10-15T08:29:11;48.67;;;20.57;;
40072;SDS011;25774;52.256;9.356;2022-10-15T08:31:38;46.25;;;17.63;;
40072;SDS011;25774;52.256;9.356;2022-10-15T08:34:04;40.58;;;16.83;;
40072;SDS011;25774;52.256;9.356;2022-10-15T08:36:29;40.78;;;18.52;;
40072;SDS011;25774;52.256;9.356;2022-10-15T08:38:55;40.30;;;17.63;;
40072;SDS011;25774;52.256;9.356;2022-10-15T08:43:51;42.63;;;18.00;;
40072;SDS011;25774;52.256;9.356;2022-10-15T08:48:49;41.40;;;17.90;;
40072;SDS011;25774;52.256;9.356;2022-10-15T08:51:19;39.17;;;18.17;;
40072;SDS011;25774;52.256;9.356;2022-10-15T08:53:50;33.67;;;18.15;;
40072;SDS011;25774;52.256;9.356;2022-10-15T08:56:37;35.88;;;16.48;;
40072;SDS011;25774;52.256;9.356;2022-10-15T09:01:54;37.00;;;15.77;;
40072;SDS011;25774;52.256;9.356;2022-10-15T09:04:25;31.75;;;16.30;;
40072;SDS011;25774;52.256;9.356;2022-10-15T09:09:43;31.80;;;14.88;;
40072;SDS011;25774;52.256;9.356;2022-10-15T09:12:28;29.45;;;16.15;;
40072;SDS011;25774;52.256;9.356;2022-10-15T09:15:17;30.13;;;16.23;;
40072;SDS011;25774;52.256;9.356;2022-10-15T09:17:45;26.48;;;14.63;;
40072;SDS011;25774;52.256;9.356;2022-10-15T09:20:17;27.15;;;15.30;;
40072;SDS011;25774;52.256;9.356;2022-10-15T09:22:49;25.88;;;14.95;;
40072;SDS011;25774;52.256;9.356;2022-10-15T09:25:16;29.73;;;14.27;;
40072;SDS011;25774;52.256;9.356;2022-10-15T09:27:45;24.90;;;14.70;;
40072;SDS011;25774;52.256;9.356;2022-10-15T09:30:31;23.50;;;13.48;;
40072;SDS011;25774;52.256;9.356;2022-10-15T09:35:56;25.25;;;13.80;;
40072;SDS011;25774;52.256;9.356;2022-10-15T09:43:54;25.02;;;12.23;;
40072;SDS011;25774;52.256;9.356;2022-10-15T09:46:22;30.02;;;12.48;;
40072;SDS011;25774;52.256;9.356;2022-10-15T09:48:50;26.07;;;12.73;;
40072;SDS011;25774;52.256;9.356;2022-10-15T09:51:30;24.85;;;12.13;;
40072;SDS011;25774;52.256;9.356;2022-10-15T09:56:51;21.85;;;10.73;;
40072;SDS011;25774;52.256;9.356;2022-10-15T09:59:19;16.25;;;10.45;;
40072;SDS011;25774;52.256;9.356;2022-10-15T10:02:02;19.35;;;11.48;;
40072;SDS011;25774;52.256;9.356;2022-10-15T10:04:37;20.52;;;11.18;;
40072;SDS011;25774;52.256;9.356;2022-10-15T10:07:05;23.17;;;11.17;;
40072;SDS011;25774;52.256;9.356;2022-10-15T10:09:33;18.38;;;10.73;;
40072;SDS011;25774;52.256;9.356;2022-10-15T10:12:03;15.95;;;9.25;;
40072;SDS011;25774;52.256;9.356;2022-10-15T10:14:31;19.25;;;9.55;;
40072;SDS011;25774;52.256;9.356;2022-10-15T10:17:15;17.92;;;10.55;;
40072;SDS011;25774;52.256;9.356;2022-10-15T10:19:45;18.70;;;9.80;;
40072;SDS011;25774;52.256;9.356;2022-10-15T10:22:28;19.00;;;11.13;;
40072;SDS011;25774;52.256;9.356;2022-10-15T10:24:53;22.13;;;10.77;;
40072;SDS011;25774;52.256;9.356;2022-10-15T10:27:27;22.10;;;10.80;;
40072;SDS011;25774;52.256;9.356;2022-10-15T10:30:02;20.13;;;10.93;;
40072;SDS011;25774;52.256;9.356;2022-10-15T10:32:32;14.73;;;9.23;;
40072;SDS011;25774;52.256;9.356;2022-10-15T10:34:59;16.35;;;9.32;;
40072;SDS011;25774;52.256;9.356;2022-10-15T10:37:26;18.92;;;10.75;;
40072;SDS011;25774;52.256;9.356;2022-10-15T10:39:53;21.20;;;11.65;;
40072;SDS011;25774;52.256;9.356;2022-10-15T10:44:51;23.80;;;10.80;;
40072;SDS011;25774;52.256;9.356;2022-10-15T10:52:27;15.63;;;8.63;;
40072;SDS011;25774;52.256;9.356;2022-10-15T10:57:42;15.10;;;8.45;;
40072;SDS011;25774;52.256;9.356;2022-10-15T11:00:16;22.60;;;8.23;;
40072;SDS011;25774;52.256;9.356;2022-10-15T11:02:45;16.55;;;8.75;;
40072;SDS011;25774;52.256;9.356;2022-10-15T11:05:11;19.23;;;8.02;;
40072;SDS011;25774;52.256;9.356;2022-10-15T11:07:51;15.05;;;9.43;;
40072;SDS011;25774;52.256;9.356;2022-10-15T11:10:23;12.77;;;8.27;;
40072;SDS011;25774;52.256;9.356;2022-10-15T11:15:51;15.82;;;8.35;;
40072;SDS011;25774;52.256;9.356;2022-10-15T11:28:04;9.25;;;6.47;;
40072;SDS011;25774;52.256;9.356;2022-10-15T11:33:00;9.13;;;5.85;;
40072;SDS011;25774;52.256;9.356;2022-10-15T11:38:19;7.95;;;5.18;;
40072;SDS011;25774;52.256;9.356;2022-10-15T11:43:42;7.07;;;4.47;;
40072;SDS011;25774;52.256;9.356;2022-10-15T11:46:18;8.40;;;4.43;;
40072;SDS011;25774;52.256;9.356;2022-10-15T11:52:08;6.35;;;4.05;;
40072;SDS011;25774;52.256;9.356;2022-10-15T11:57:50;8.20;;;4.53;;
40072;SDS011;25774;52.256;9.356;2022-10-15T12:00:33;16.30;;;3.88;;
40072;SDS011;25774;52.256;9.356;2022-10-15T12:03:22;8.50;;;4.32;;
40072;SDS011;25774;52.256;9.356;2022-10-15T12:05:55;9.35;;;3.55;;
40072;SDS011;25774;52.256;9.356;2022-10-15T12:08:29;6.90;;;3.85;;
40072;SDS011;25774;52.256;9.356;2022-10-15T12:16:45;12.67;;;3.13;;
40072;SDS011;25774;52.256;9.356;2022-10-15T12:19:33;7.60;;;4.03;;
40072;SDS011;25774;52.256;9.356;2022-10-15T12:22:07;9.25;;;3.15;;
40072;SDS011;25774;52.256;9.356;2022-10-15T12:38:18;13.48;;;4.35;;
40072;SDS011;25774;52.256;9.356;2022-10-15T12:40:56;7.70;;;3.40;;
40072;SDS011;25774;52.256;9.356;2022-10-15T12:43:24;4.90;;;2.72;;
40072;SDS011;25774;52.256;9.356;2022-10-15T12:45:53;5.60;;;2.83;;
40072;SDS011;25774;52.256;9.356;2022-10-15T12:53:46;8.63;;;3.10;;
40072;SDS011;25774;52.256;9.356;2022-10-15T12:58:41;4.88;;;2.78;;
40072;SDS011;25774;52.256;9.356;2022-10-15T13:06:14;3.40;;;1.90;;
40072;SDS011;25774;52.256;9.356;2022-10-15T13:11:43;6.47;;;2.13;;
40072;SDS011;25774;52.256;9.356;2022-10-15T13:16:36;5.50;;;1.97;;
40072;SDS011;25774;52.256;9.356;2022-10-15T13:19:03;9.38;;;2.08;;
40072;SDS011;25774;52.256;9.356;2022-10-15T13:24:19;8.70;;;1.77;;
40072;SDS011;25774;52.256;9.356;2022-10-15T13:26:47;4.32;;;1.60;;
40072;SDS011;25774;52.256;9.356;2022-10-15T13:29:14;3.63;;;1.23;;
40072;SDS011;25774;52.256;9.356;2022-10-15T13:31:41;6.40;;;1.58;;
40072;SDS011;25774;52.256;9.356;2022-10-15T13:36:57;3.25;;;1.63;;
40072;SDS011;25774;52.256;9.356;2022-10-15T13:39:28;9.07;;;2.00;;
40072;SDS011;25774;52.256;9.356;2022-10-15T13:44:55;3.92;;;1.48;;
40072;SDS011;25774;52.256;9.356;2022-10-15T13:47:31;2.63;;;1.48;;
40072;SDS011;25774;52.256;9.356;2022-10-15T13:55:33;2.88;;;1.27;;
40072;SDS011;25774;52.256;9.356;2022-10-15T13:58:20;8.43;;;2.13;;
40072;SDS011;25774;52.256;9.356;2022-10-15T14:03:33;3.97;;;1.02;;
40072;SDS011;25774;52.256;9.356;2022-10-15T14:06:19;2.80;;;1.55;;
40072;SDS011;25774;52.256;9.356;2022-10-15T14:08:52;2.78;;;1.20;;
40072;SDS011;25774;52.256;9.356;2022-10-15T14:11:20;9.68;;;1.25;;
40072;SDS011;25774;52.256;9.356;2022-10-15T14:13:51;6.22;;;1.27;;
40072;SDS011;25774;52.256;9.356;2022-10-15T14:19:13;6.45;;;1.15;;
40072;SDS011;25774;52.256;9.356;2022-10-15T14:21:43;7.13;;;1.27;;
40072;SDS011;25774;52.256;9.356;2022-10-15T14:24:15;2.45;;;0.82;;
40072;SDS011;25774;52.256;9.356;2022-10-15T14:26:44;11.77;;;1.38;;
40072;SDS011;25774;52.256;9.356;2022-10-15T14:29:21;1.98;;;0.80;;
40072;SDS011;25774;52.256;9.356;2022-10-15T14:31:51;1.85;;;0.50;;
40072;SDS011;25774;52.256;9.356;2022-10-15T14:34:50;2.25;;;0.47;;
40072;SDS011;25774;52.256;9.356;2022-10-15T14:42:48;1.83;;;0.30;;
40072;SDS011;25774;52.256;9.356;2022-10-15T14:45:28;0.95;;;0.30;;
40072;SDS011;25774;52.256;9.356;2022-10-15T14:47:59;4.03;;;0.50;;
40072;SDS011;25774;52.256;9.356;2022-10-15T14:50:33;1.02;;;0.38;;
40072;SDS011;25774;52.256;9.356;2022-10-15T14:53:04;3.50;;;0.30;;
40072;SDS011;25774;52.256;9.356;2022-10-15T14:55:33;0.63;;;0.30;;
40072;SDS011;25774;52.256;9.356;2022-10-15T14:58:06;2.38;;;0.50;;
40072;SDS011;25774;52.256;9.356;2022-10-15T15:00:41;7.38;;;0.50;;
40072;SDS011;25774;52.256;9.356;2022-10-15T15:03:13;3.30;;;0.50;;
40072;SDS011;25774;52.256;9.356;2022-10-15T15:05:48;2.03;;;0.40;;
40072;SDS011;25774;52.256;9.356;2022-10-15T15:10:46;6.70;;;0.70;;
40072;SDS011;25774;52.256;9.356;2022-10-15T15:13:14;0.30;;;0.22;;
40072;SDS011;25774;52.256;9.356;2022-10-15T15:15:45;2.45;;;0.43;;
40072;SDS011;25774;52.256;9.356;2022-10-15T15:18:10;2.93;;;0.47;;
40072;SDS011;25774;52.256;9.356;2022-10-15T15:20:35;1.17;;;0.77;;
40072;SDS011;25774;52.256;9.356;2022-10-15T15:23:01;4.53;;;0.52;;
40072;SDS011;25774;52.256;9.356;2022-10-15T15:25:27;3.33;;;0.50;;
40072;SDS011;25774;52.256;9.356;2022-10-15T15:27:55;6.15;;;0.38;;
40072;SDS011;25774;52.256;9.356;2022-10-15T15:30:23;1.52;;;0.52;;
40072;SDS011;25774;52.256;9.356;2022-10-15T15:32:49;0.82;;;0.40;;
40072;SDS011;25774;52.256;9.356;2022-10-15T15:40:18;3.08;;;0.45;;
40072;SDS011;25774;52.256;9.356;2022-10-15T15:42:45;3.22;;;0.38;;
40072;SDS011;25774;52.256;9.356;2022-10-15T15:45:16;0.52;;;0.30;;
40072;SDS011;25774;52.256;9.356;2022-10-15T15:47:43;2.15;;;0.35;;
40072;SDS011;25774;52.256;9.356;2022-10-15T15:50:09;6.68;;;0.52;;
40072;SDS011;25774;52.256;9.356;2022-10-15T15:52:34;0.97;;;0.47;;
40072;SDS011;25774;52.256;9.356;2022-10-15T15:55:00;0.93;;;0.30;;
40072;SDS011;25774;52.256;9.356;2022-10-15T15:57:25;1.43;;;0.50;;
40072;SDS011;25774;52.256;9.356;2022-10-15T15:59:50;0.70;;;0.33;;
40072;SDS011;25774;52.256;9.356;2022-10-15T16:02:15;3.57;;;0.30;;
40072;SDS011;25774;52.256;9.356;2022-10-15T16:04:41;0.20;;;0.20;;
40072;SDS011;25774;52.256;9.356;2022-10-15T16:07:09;0.98;;;0.45;;
40072;SDS011;25774;52.256;9.356;2022-10-15T16:09:35;2.72;;;0.60;;
40072;SDS011;25774;52.256;9.356;2022-10-15T16:12:02;8.88;;;0.50;;
40072;SDS011;25774;52.256;9.356;2022-10-15T16:14:29;2.75;;;0.50;;
40072;SDS011;25774;52.256;9.356;2022-10-15T16:16:56;4.47;;;0.43;;
40072;SDS011;25774;52.256;9.356;2022-10-15T16:19:23;1.02;;;0.30;;
40072;SDS011;25774;52.256;9.356;2022-10-15T16:21:49;4.95;;;0.30;;
40072;SDS011;25774;52.256;9.356;2022-10-15T16:24:15;3.38;;;0.85;;
40072;SDS011;25774;52.256;9.356;2022-10-15T16:26:40;0.67;;;0.30;;
40072;SDS011;25774;52.256;9.356;2022-10-15T16:29:05;0.50;;;0.30;;
40072;SDS011;25774;52.256;9.356;2022-10-15T16:31:31;0.37;;;0.20;;
40072;SDS011;25774;52.256;9.356;2022-10-15T16:34:00;8.57;;;0.60;;
40072;SDS011;25774;52.256;9.356;2022-10-15T16:36:30;5.40;;;0.50;;
40072;SDS011;25774;52.256;9.356;2022-10-15T16:38:56;0.60;;;0.30;;
40072;SDS011;25774;52.256;9.356;2022-10-15T16:43:47;1.92;;;0.40;;
40072;SDS011;25774;52.256;9.356;2022-10-15T16:46:13;2.80;;;0.40;;
40072;SDS011;25774;52.256;9.356;2022-10-15T16:48:39;2.58;;;0.57;;
40072;SDS011;25774;52.256;9.356;2022-10-15T16:51:06;1.52;;;0.28;;
40072;SDS011;25774;52.256;9.356;2022-10-15T16:53:35;0.52;;;0.20;;
40072;SDS011;25774;52.256;9.356;2022-10-15T16:56:03;1.20;;;0.20;;
40072;SDS011;25774;52.256;9.356;2022-10-15T16:58:29;0.52;;;0.20;;
40072;SDS011;25774;52.256;9.356;2022-10-15T17:00:58;0.80;;;0.30;;
40072;SDS011;25774;52.256;9.356;2022-10-15T17:03:28;5.13;;;2.05;;
40072;SDS011;25774;52.256;9.356;2022-10-15T17:05:58;4.75;;;0.30;;
40072;SDS011;25774;52.256;9.356;2022-10-15T17:08:25;5.25;;;0.88;;
40072;SDS011;25774;52.256;9.356;2022-10-15T17:10:54;5.20;;;0.22;;
40072;SDS011;25774;52.256;9.356;2022-10-15T17:15:45;1.23;;;0.30;;
40072;SDS011;25774;52.256;9.356;2022-10-15T17:18:12;2.38;;;0.30;;
40072;SDS011;25774;52.256;9.356;2022-10-15T17:20:47;5.07;;;0.20;;
40072;SDS011;25774;52.256;9.356;2022-10-15T17:23:14;4.38;;;0.50;;
40072;SDS011;25774;52.256;9.356;2022-10-15T17:25:40;0.60;;;0.30;;
40072;SDS011;25774;52.256;9.356;2022-10-15T17:28:07;5.22;;;0.38;;
40072;SDS011;25774;52.256;9.356;2022-10-15T17:30:33;3.22;;;0.30;;
40072;SDS011;25774;52.256;9.356;2022-10-15T17:33:00;2.90;;;0.30;;
40072;SDS011;25774;52.256;9.356;2022-10-15T17:35:25;3.60;;;0.50;;